sensor_id;sensor_type;location;lat;lon;timestamp;P1;durP1;ratioP1;P2;durP2;ratioP2
37349;SDS011;23231;52.358;4.926;2023-07-31T00:03:21;15.98;;;4.68;;
37349;SDS011;23231;52.358;4.926;2023-07-31T00:08:21;22.65;;;4.00;;
37349;SDS011;23231;52.358;4.926;2023-07-31T00:13:22;16.50;;;3.88;;
37349;SDS011;23231;52.358;4.926;2023-07-31T00:18:23;15.75;;;3.72;;
37349;SDS011;23231;52.358;4.926;2023-07-31T00:23:23;14.90;;;4.18;;
37349;SDS011;23231;52.358;4.926;2023-07-31T00:28:24;11.50;;;3.97;;
37349;SDS011;23231;52.358;4.926;2023-07-31T00:33:24;17.30;;;4.55;;
37349;SDS011;23231;52.358;4.926;2023-07-31T00:38:25;13.82;;;3.92;;
37349;SDS011;23231;52.358;4.926;2023-07-31T00:43:25;17.33;;;4.88;;
37349;SDS011;23231;52.358;4.926;2023-07-31T00:48:25;20.70;;;5.05;;
37349;SDS011;23231;52.358;4.926;2023-07-31T00:53:27;19.95;;;5.75;;
37349;SDS011;23231;52.358;4.926;2023-07-31T00:58:27;21.83;;;6.13;;
37349;SDS011;23231;52.358;4.926;2023-07-31T01:03:28;28.23;;;6.63;;
37349;SDS011;23231;52.358;4.926;2023-07-31T01:13:44;23.38;;;6.55;;
37349;SDS011;23231;52.358;4.926;2023-07-31T01:18:44;27.92;;;6.03;;
37349;SDS011;23231;52.358;4.926;2023-07-31T01:23:56;23.23;;;6.35;;
37349;SDS011;23231;52.358;4.926;2023-07-31T01:34:25;28.95;;;7.68;;
37349;SDS011;23231;52.358;4.926;2023-07-31T01:39:26;22.88;;;6.90;;
37349;SDS011;23231;52.358;4.926;2023-07-31T01:44:27;31.38;;;7.88;;
37349;SDS011;23231;52.358;4.926;2023-07-31T01:49:27;32.35;;;8.25;;
37349;SDS011;23231;52.358;4.926;2023-07-31T01:54:28;31.50;;;8.98;;
37349;SDS011;23231;52.358;4.926;2023-07-31T01:59:29;37.08;;;8.98;;
37349;SDS011;23231;52.358;4.926;2023-07-31T02:04:29;37.88;;;8.88;;
37349;SDS011;23231;52.358;4.926;2023-07-31T02:09:29;35.67;;;8.02;;
37349;SDS011;23231;52.358;4.926;2023-07-31T02:14:30;38.38;;;8.70;;
37349;SDS011;23231;52.358;4.926;2023-07-31T02:19:30;36.90;;;9.02;;
37349;SDS011;23231;52.358;4.926;2023-07-31T02:24:32;31.70;;;8.90;;
37349;SDS011;23231;52.358;4.926;2023-07-31T02:29:32;34.85;;;9.27;;
37349;SDS011;23231;52.358;4.926;2023-07-31T02:34:35;34.58;;;9.25;;
37349;SDS011;23231;52.358;4.926;2023-07-31T02:39:35;33.97;;;8.75;;
37349;SDS011;23231;52.358;4.926;2023-07-31T02:44:35;29.20;;;8.73;;
37349;SDS011;23231;52.358;4.926;2023-07-31T02:49:36;40.20;;;9.55;;
37349;SDS011;23231;52.358;4.926;2023-07-31T02:54:36;34.78;;;9.05;;
37349;SDS011;23231;52.358;4.926;2023-07-31T02:59:37;36.05;;;8.32;;
37349;SDS011;23231;52.358;4.926;2023-07-31T03:04:37;35.95;;;9.15;;
37349;SDS011;23231;52.358;4.926;2023-07-31T03:09:37;26.15;;;7.40;;
37349;SDS011;23231;52.358;4.926;2023-07-31T03:14:38;31.83;;;8.90;;
37349;SDS011;23231;52.358;4.926;2023-07-31T03:19:38;30.92;;;8.18;;
37349;SDS011;23231;52.358;4.926;2023-07-31T03:24:39;29.92;;;8.73;;
37349;SDS011;23231;52.358;4.926;2023-07-31T03:29:39;29.98;;;8.10;;
37349;SDS011;23231;52.358;4.926;2023-07-31T03:34:39;41.22;;;10.25;;
37349;SDS011;23231;52.358;4.926;2023-07-31T03:39:40;34.97;;;10.25;;
37349;SDS011;23231;52.358;4.926;2023-07-31T03:44:40;32.33;;;9.40;;
37349;SDS011;23231;52.358;4.926;2023-07-31T03:49:40;38.60;;;9.82;;
37349;SDS011;23231;52.358;4.926;2023-07-31T03:54:41;40.72;;;10.52;;
37349;SDS011;23231;52.358;4.926;2023-07-31T03:59:41;40.50;;;9.63;;
37349;SDS011;23231;52.358;4.926;2023-07-31T04:04:42;33.90;;;9.77;;
37349;SDS011;23231;52.358;4.926;2023-07-31T04:09:42;34.92;;;9.48;;
37349;SDS011;23231;52.358;4.926;2023-07-31T04:14:42;32.72;;;9.70;;
37349;SDS011;23231;52.358;4.926;2023-07-31T04:19:43;33.35;;;8.35;;
37349;SDS011;23231;52.358;4.926;2023-07-31T04:24:43;27.88;;;8.45;;
37349;SDS011;23231;52.358;4.926;2023-07-31T04:29:44;32.97;;;9.32;;
37349;SDS011;23231;52.358;4.926;2023-07-31T04:34:46;26.83;;;8.20;;
37349;SDS011;23231;52.358;4.926;2023-07-31T04:39:46;28.95;;;8.20;;
37349;SDS011;23231;52.358;4.926;2023-07-31T04:44:46;31.05;;;8.10;;
37349;SDS011;23231;52.358;4.926;2023-07-31T04:49:47;22.50;;;5.93;;
37349;SDS011;23231;52.358;4.926;2023-07-31T04:54:47;24.58;;;6.20;;
37349;SDS011;23231;52.358;4.926;2023-07-31T04:59:48;14.50;;;4.80;;
37349;SDS011;23231;52.358;4.926;2023-07-31T05:04:48;13.18;;;4.35;;
37349;SDS011;23231;52.358;4.926;2023-07-31T05:09:48;17.13;;;3.92;;
37349;SDS011;23231;52.358;4.926;2023-07-31T05:14:49;15.25;;;3.67;;
37349;SDS011;23231;52.358;4.926;2023-07-31T05:19:49;9.98;;;3.15;;
37349;SDS011;23231;52.358;4.926;2023-07-31T05:24:50;11.32;;;3.50;;
37349;SDS011;23231;52.358;4.926;2023-07-31T05:29:50;11.30;;;3.53;;
37349;SDS011;23231;52.358;4.926;2023-07-31T05:34:51;7.90;;;2.88;;
37349;SDS011;23231;52.358;4.926;2023-07-31T05:39:52;11.18;;;2.80;;
37349;SDS011;23231;52.358;4.926;2023-07-31T05:44:52;7.85;;;2.67;;
37349;SDS011;23231;52.358;4.926;2023-07-31T05:49:53;6.78;;;2.80;;
37349;SDS011;23231;52.358;4.926;2023-07-31T05:54:53;5.97;;;2.70;;
37349;SDS011;23231;52.358;4.926;2023-07-31T05:59:54;4.95;;;2.30;;
37349;SDS011;23231;52.358;4.926;2023-07-31T06:04:54;4.72;;;2.60;;
37349;SDS011;23231;52.358;4.926;2023-07-31T06:09:54;5.38;;;2.42;;
37349;SDS011;23231;52.358;4.926;2023-07-31T06:14:55;3.80;;;2.38;;
37349;SDS011;23231;52.358;4.926;2023-07-31T06:19:56;5.50;;;2.38;;
37349;SDS011;23231;52.358;4.926;2023-07-31T06:24:56;4.45;;;2.45;;
37349;SDS011;23231;52.358;4.926;2023-07-31T06:29:57;5.90;;;2.55;;
37349;SDS011;23231;52.358;4.926;2023-07-31T06:34:57;4.10;;;2.08;;
37349;SDS011;23231;52.358;4.926;2023-07-31T06:39:58;4.78;;;1.73;;
37349;SDS011;23231;52.358;4.926;2023-07-31T06:44:58;3.03;;;1.50;;
37349;SDS011;23231;52.358;4.926;2023-07-31T06:49:59;3.72;;;1.70;;
37349;SDS011;23231;52.358;4.926;2023-07-31T06:55:00;4.07;;;1.95;;
37349;SDS011;23231;52.358;4.926;2023-07-31T07:00:04;5.70;;;1.95;;
37349;SDS011;23231;52.358;4.926;2023-07-31T07:05:06;2.83;;;1.20;;
37349;SDS011;23231;52.358;4.926;2023-07-31T07:10:07;2.30;;;1.00;;
37349;SDS011;23231;52.358;4.926;2023-07-31T07:15:08;1.80;;;1.00;;
37349;SDS011;23231;52.358;4.926;2023-07-31T07:20:09;4.28;;;1.00;;
37349;SDS011;23231;52.358;4.926;2023-07-31T07:25:09;4.07;;;1.00;;
37349;SDS011;23231;52.358;4.926;2023-07-31T07:30:10;1.88;;;0.82;;
37349;SDS011;23231;52.358;4.926;2023-07-31T07:35:11;3.90;;;1.20;;
37349;SDS011;23231;52.358;4.926;2023-07-31T07:40:11;5.10;;;1.80;;
37349;SDS011;23231;52.358;4.926;2023-07-31T07:45:12;8.40;;;2.10;;
37349;SDS011;23231;52.358;4.926;2023-07-31T07:50:12;7.75;;;2.17;;
37349;SDS011;23231;52.358;4.926;2023-07-31T07:55:13;9.63;;;2.67;;
37349;SDS011;23231;52.358;4.926;2023-07-31T08:00:14;12.15;;;2.80;;
37349;SDS011;23231;52.358;4.926;2023-07-31T08:05:15;10.32;;;3.08;;
37349;SDS011;23231;52.358;4.926;2023-07-31T08:10:17;8.77;;;2.90;;
37349;SDS011;23231;52.358;4.926;2023-07-31T08:15:17;6.35;;;2.30;;
37349;SDS011;23231;52.358;4.926;2023-07-31T08:20:18;6.97;;;2.30;;
37349;SDS011;23231;52.358;4.926;2023-07-31T08:25:18;7.93;;;2.75;;
37349;SDS011;23231;52.358;4.926;2023-07-31T08:30:19;8.35;;;2.58;;
37349;SDS011;23231;52.358;4.926;2023-07-31T08:35:19;10.13;;;2.30;;
37349;SDS011;23231;52.358;4.926;2023-07-31T08:40:20;8.52;;;2.17;;
37349;SDS011;23231;52.358;4.926;2023-07-31T08:45:22;6.75;;;2.25;;
37349;SDS011;23231;52.358;4.926;2023-07-31T08:50:22;7.72;;;2.50;;
37349;SDS011;23231;52.358;4.926;2023-07-31T08:55:23;8.07;;;2.55;;
37349;SDS011;23231;52.358;4.926;2023-07-31T09:00:24;11.90;;;3.15;;
37349;SDS011;23231;52.358;4.926;2023-07-31T09:05:26;14.70;;;3.97;;
37349;SDS011;23231;52.358;4.926;2023-07-31T09:10:26;18.63;;;3.95;;
37349;SDS011;23231;52.358;4.926;2023-07-31T09:15:27;13.90;;;3.67;;
37349;SDS011;23231;52.358;4.926;2023-07-31T09:20:27;15.10;;;4.10;;
37349;SDS011;23231;52.358;4.926;2023-07-31T09:25:28;17.17;;;4.10;;
37349;SDS011;23231;52.358;4.926;2023-07-31T09:30:28;12.65;;;3.28;;
37349;SDS011;23231;52.358;4.926;2023-07-31T09:35:30;18.75;;;3.97;;
37349;SDS011;23231;52.358;4.926;2023-07-31T09:40:32;18.30;;;4.28;;
37349;SDS011;23231;52.358;4.926;2023-07-31T09:45:35;17.33;;;3.63;;
37349;SDS011;23231;52.358;4.926;2023-07-31T09:50:37;16.70;;;3.88;;
37349;SDS011;23231;52.358;4.926;2023-07-31T09:55:39;19.40;;;4.05;;
37349;SDS011;23231;52.358;4.926;2023-07-31T10:00:40;14.07;;;4.07;;
37349;SDS011;23231;52.358;4.926;2023-07-31T10:05:42;18.80;;;4.28;;
37349;SDS011;23231;52.358;4.926;2023-07-31T10:10:45;21.53;;;4.37;;
37349;SDS011;23231;52.358;4.926;2023-07-31T10:15:46;16.65;;;3.92;;
37349;SDS011;23231;52.358;4.926;2023-07-31T10:20:46;18.30;;;4.07;;
37349;SDS011;23231;52.358;4.926;2023-07-31T10:25:47;16.75;;;3.83;;
37349;SDS011;23231;52.358;4.926;2023-07-31T10:30:48;15.85;;;3.35;;
37349;SDS011;23231;52.358;4.926;2023-07-31T10:35:49;15.27;;;3.20;;
37349;SDS011;23231;52.358;4.926;2023-07-31T10:40:53;13.13;;;3.03;;
37349;SDS011;23231;52.358;4.926;2023-07-31T10:46:11;10.67;;;3.13;;
37349;SDS011;23231;52.358;4.926;2023-07-31T10:51:13;15.75;;;4.45;;
37349;SDS011;23231;52.358;4.926;2023-07-31T10:56:14;13.82;;;3.72;;
37349;SDS011;23231;52.358;4.926;2023-07-31T11:01:19;14.20;;;3.83;;
37349;SDS011;23231;52.358;4.926;2023-07-31T11:06:19;10.25;;;3.22;;
37349;SDS011;23231;52.358;4.926;2023-07-31T11:11:20;13.93;;;3.50;;
37349;SDS011;23231;52.358;4.926;2023-07-31T11:16:21;17.65;;;4.05;;
37349;SDS011;23231;52.358;4.926;2023-07-31T11:21:25;11.97;;;3.37;;
37349;SDS011;23231;52.358;4.926;2023-07-31T11:26:25;14.80;;;3.42;;
37349;SDS011;23231;52.358;4.926;2023-07-31T11:31:27;12.68;;;3.50;;
37349;SDS011;23231;52.358;4.926;2023-07-31T11:36:27;13.02;;;3.30;;
37349;SDS011;23231;52.358;4.926;2023-07-31T11:41:28;10.55;;;2.78;;
37349;SDS011;23231;52.358;4.926;2023-07-31T11:46:32;9.57;;;2.85;;
37349;SDS011;23231;52.358;4.926;2023-07-31T11:51:32;9.98;;;3.10;;
37349;SDS011;23231;52.358;4.926;2023-07-31T11:56:33;11.23;;;3.15;;
37349;SDS011;23231;52.358;4.926;2023-07-31T12:01:33;11.80;;;2.90;;
37349;SDS011;23231;52.358;4.926;2023-07-31T12:06:34;15.07;;;3.17;;
37349;SDS011;23231;52.358;4.926;2023-07-31T12:11:42;13.48;;;3.17;;
37349;SDS011;23231;52.358;4.926;2023-07-31T12:16:44;10.80;;;2.70;;
37349;SDS011;23231;52.358;4.926;2023-07-31T12:21:44;9.43;;;2.97;;
37349;SDS011;23231;52.358;4.926;2023-07-31T12:26:48;11.73;;;2.70;;
37349;SDS011;23231;52.358;4.926;2023-07-31T12:31:49;9.35;;;2.80;;
37349;SDS011;23231;52.358;4.926;2023-07-31T12:36:49;10.25;;;2.70;;
37349;SDS011;23231;52.358;4.926;2023-07-31T12:41:49;10.43;;;2.67;;
37349;SDS011;23231;52.358;4.926;2023-07-31T12:46:50;8.85;;;2.20;;
37349;SDS011;23231;52.358;4.926;2023-07-31T12:51:50;11.13;;;2.55;;
37349;SDS011;23231;52.358;4.926;2023-07-31T12:56:51;8.65;;;2.42;;
37349;SDS011;23231;52.358;4.926;2023-07-31T13:01:51;10.15;;;3.00;;
37349;SDS011;23231;52.358;4.926;2023-07-31T13:06:51;7.05;;;2.10;;
37349;SDS011;23231;52.358;4.926;2023-07-31T13:11:52;8.00;;;2.40;;
37349;SDS011;23231;52.358;4.926;2023-07-31T13:16:52;10.40;;;2.45;;
37349;SDS011;23231;52.358;4.926;2023-07-31T13:21:53;9.13;;;2.47;;
37349;SDS011;23231;52.358;4.926;2023-07-31T13:26:53;9.07;;;2.03;;
37349;SDS011;23231;52.358;4.926;2023-07-31T13:31:53;8.25;;;2.58;;
37349;SDS011;23231;52.358;4.926;2023-07-31T13:36:54;10.43;;;2.38;;
37349;SDS011;23231;52.358;4.926;2023-07-31T13:41:55;5.32;;;2.08;;
37349;SDS011;23231;52.358;4.926;2023-07-31T13:46:56;8.65;;;2.38;;
37349;SDS011;23231;52.358;4.926;2023-07-31T13:51:57;5.70;;;1.80;;
37349;SDS011;23231;52.358;4.926;2023-07-31T13:56:58;5.75;;;1.35;;
37349;SDS011;23231;52.358;4.926;2023-07-31T14:01:58;3.53;;;1.15;;
37349;SDS011;23231;52.358;4.926;2023-07-31T14:06:58;4.38;;;1.35;;
37349;SDS011;23231;52.358;4.926;2023-07-31T14:11:59;5.68;;;2.00;;
37349;SDS011;23231;52.358;4.926;2023-07-31T14:17:00;6.20;;;2.22;;
37349;SDS011;23231;52.358;4.926;2023-07-31T14:22:00;4.72;;;1.90;;
37349;SDS011;23231;52.358;4.926;2023-07-31T14:27:01;8.55;;;2.75;;
37349;SDS011;23231;52.358;4.926;2023-07-31T14:32:02;9.43;;;2.92;;
37349;SDS011;23231;52.358;4.926;2023-07-31T14:37:02;10.27;;;3.05;;
37349;SDS011;23231;52.358;4.926;2023-07-31T14:42:03;14.93;;;3.90;;
37349;SDS011;23231;52.358;4.926;2023-07-31T14:47:04;11.88;;;3.25;;
37349;SDS011;23231;52.358;4.926;2023-07-31T14:52:04;12.07;;;3.42;;
37349;SDS011;23231;52.358;4.926;2023-07-31T14:57:05;17.00;;;3.72;;
37349;SDS011;23231;52.358;4.926;2023-07-31T15:02:06;12.85;;;3.50;;
37349;SDS011;23231;52.358;4.926;2023-07-31T15:07:07;12.80;;;2.83;;
37349;SDS011;23231;52.358;4.926;2023-07-31T15:12:08;10.77;;;2.90;;
37349;SDS011;23231;52.358;4.926;2023-07-31T15:17:08;16.40;;;2.90;;
37349;SDS011;23231;52.358;4.926;2023-07-31T15:22:08;11.77;;;3.03;;
37349;SDS011;23231;52.358;4.926;2023-07-31T15:27:09;7.68;;;2.05;;
37349;SDS011;23231;52.358;4.926;2023-07-31T15:32:09;10.38;;;2.55;;
37349;SDS011;23231;52.358;4.926;2023-07-31T15:37:10;8.75;;;1.70;;
37349;SDS011;23231;52.358;4.926;2023-07-31T15:42:10;6.32;;;2.00;;
37349;SDS011;23231;52.358;4.926;2023-07-31T15:47:11;6.80;;;2.10;;
37349;SDS011;23231;52.358;4.926;2023-07-31T15:52:11;3.50;;;1.30;;
37349;SDS011;23231;52.358;4.926;2023-07-31T15:57:12;4.50;;;1.50;;
37349;SDS011;23231;52.358;4.926;2023-07-31T16:02:12;4.82;;;1.67;;
37349;SDS011;23231;52.358;4.926;2023-07-31T16:07:13;7.45;;;1.77;;
37349;SDS011;23231;52.358;4.926;2023-07-31T16:12:13;5.47;;;1.77;;
37349;SDS011;23231;52.358;4.926;2023-07-31T16:17:13;5.78;;;1.90;;
37349;SDS011;23231;52.358;4.926;2023-07-31T16:22:14;7.38;;;1.90;;
37349;SDS011;23231;52.358;4.926;2023-07-31T16:27:14;6.45;;;2.00;;
37349;SDS011;23231;52.358;4.926;2023-07-31T16:32:15;5.93;;;2.13;;
37349;SDS011;23231;52.358;4.926;2023-07-31T16:37:15;10.65;;;2.30;;
37349;SDS011;23231;52.358;4.926;2023-07-31T16:42:15;10.95;;;2.75;;
37349;SDS011;23231;52.358;4.926;2023-07-31T16:47:16;8.35;;;2.30;;
37349;SDS011;23231;52.358;4.926;2023-07-31T16:52:17;8.60;;;2.60;;
37349;SDS011;23231;52.358;4.926;2023-07-31T16:57:17;9.90;;;2.58;;
37349;SDS011;23231;52.358;4.926;2023-07-31T17:02:18;8.38;;;2.65;;
37349;SDS011;23231;52.358;4.926;2023-07-31T17:07:18;13.20;;;3.15;;
37349;SDS011;23231;52.358;4.926;2023-07-31T17:12:21;11.65;;;2.90;;
37349;SDS011;23231;52.358;4.926;2023-07-31T17:17:21;10.13;;;2.80;;
37349;SDS011;23231;52.358;4.926;2023-07-31T17:22:23;8.98;;;2.65;;
37349;SDS011;23231;52.358;4.926;2023-07-31T17:27:23;9.68;;;2.60;;
37349;SDS011;23231;52.358;4.926;2023-07-31T17:32:24;10.10;;;2.95;;
37349;SDS011;23231;52.358;4.926;2023-07-31T17:37:26;11.40;;;2.53;;
37349;SDS011;23231;52.358;4.926;2023-07-31T17:42:26;13.32;;;3.05;;
37349;SDS011;23231;52.358;4.926;2023-07-31T17:47:27;10.70;;;2.95;;
37349;SDS011;23231;52.358;4.926;2023-07-31T17:52:27;10.02;;;3.25;;
37349;SDS011;23231;52.358;4.926;2023-07-31T17:57:28;12.55;;;2.88;;
37349;SDS011;23231;52.358;4.926;2023-07-31T18:02:28;14.18;;;2.70;;
37349;SDS011;23231;52.358;4.926;2023-07-31T18:07:29;10.02;;;2.80;;
37349;SDS011;23231;52.358;4.926;2023-07-31T18:12:29;11.98;;;2.60;;
37349;SDS011;23231;52.358;4.926;2023-07-31T18:17:30;9.93;;;2.15;;
37349;SDS011;23231;52.358;4.926;2023-07-31T18:22:30;10.70;;;2.20;;
37349;SDS011;23231;52.358;4.926;2023-07-31T18:27:31;8.07;;;2.10;;
37349;SDS011;23231;52.358;4.926;2023-07-31T18:32:31;7.90;;;1.88;;
37349;SDS011;23231;52.358;4.926;2023-07-31T18:37:32;6.68;;;2.20;;
37349;SDS011;23231;52.358;4.926;2023-07-31T18:42:32;6.45;;;2.00;;
37349;SDS011;23231;52.358;4.926;2023-07-31T18:47:32;12.25;;;2.17;;
37349;SDS011;23231;52.358;4.926;2023-07-31T18:52:33;10.52;;;2.15;;
37349;SDS011;23231;52.358;4.926;2023-07-31T18:57:34;8.20;;;2.38;;
37349;SDS011;23231;52.358;4.926;2023-07-31T19:02:34;9.02;;;2.53;;
37349;SDS011;23231;52.358;4.926;2023-07-31T19:07:34;9.63;;;2.40;;
37349;SDS011;23231;52.358;4.926;2023-07-31T19:12:35;8.85;;;2.28;;
37349;SDS011;23231;52.358;4.926;2023-07-31T19:17:37;8.43;;;2.55;;
37349;SDS011;23231;52.358;4.926;2023-07-31T19:22:38;9.52;;;2.70;;
37349;SDS011;23231;52.358;4.926;2023-07-31T19:27:38;10.18;;;3.00;;
37349;SDS011;23231;52.358;4.926;2023-07-31T19:32:39;13.77;;;3.17;;
37349;SDS011;23231;52.358;4.926;2023-07-31T19:37:39;10.02;;;2.80;;
37349;SDS011;23231;52.358;4.926;2023-07-31T19:42:40;9.45;;;2.40;;
37349;SDS011;23231;52.358;4.926;2023-07-31T19:47:40;9.95;;;2.30;;
37349;SDS011;23231;52.358;4.926;2023-07-31T19:52:42;11.45;;;2.63;;
37349;SDS011;23231;52.358;4.926;2023-07-31T19:57:42;8.57;;;2.28;;
37349;SDS011;23231;52.358;4.926;2023-07-31T20:02:43;8.02;;;2.22;;
37349;SDS011;23231;52.358;4.926;2023-07-31T20:07:43;5.05;;;1.90;;
37349;SDS011;23231;52.358;4.926;2023-07-31T20:12:44;5.47;;;2.42;;
37349;SDS011;23231;52.358;4.926;2023-07-31T20:17:44;7.60;;;1.88;;
37349;SDS011;23231;52.358;4.926;2023-07-31T20:22:45;9.60;;;2.17;;
37349;SDS011;23231;52.358;4.926;2023-07-31T20:27:45;5.78;;;2.40;;
37349;SDS011;23231;52.358;4.926;2023-07-31T20:32:46;7.80;;;2.50;;
37349;SDS011;23231;52.358;4.926;2023-07-31T20:37:46;8.30;;;2.70;;
37349;SDS011;23231;52.358;4.926;2023-07-31T20:42:56;9.27;;;2.65;;
37349;SDS011;23231;52.358;4.926;2023-07-31T20:47:58;9.50;;;2.30;;
37349;SDS011;23231;52.358;4.926;2023-07-31T20:52:59;8.23;;;2.45;;
37349;SDS011;23231;52.358;4.926;2023-07-31T20:57:59;7.22;;;2.10;;
37349;SDS011;23231;52.358;4.926;2023-07-31T21:03:03;7.88;;;2.13;;
37349;SDS011;23231;52.358;4.926;2023-07-31T21:08:04;7.05;;;2.30;;
37349;SDS011;23231;52.358;4.926;2023-07-31T21:13:04;9.43;;;2.63;;
37349;SDS011;23231;52.358;4.926;2023-07-31T21:18:04;6.72;;;2.28;;
37349;SDS011;23231;52.358;4.926;2023-07-31T21:23:05;7.53;;;2.17;;
37349;SDS011;23231;52.358;4.926;2023-07-31T21:28:07;8.25;;;2.30;;
37349;SDS011;23231;52.358;4.926;2023-07-31T21:33:10;9.27;;;2.03;;
37349;SDS011;23231;52.358;4.926;2023-07-31T21:38:11;8.88;;;2.80;;
37349;SDS011;23231;52.358;4.926;2023-07-31T21:43:13;10.55;;;2.50;;
37349;SDS011;23231;52.358;4.926;2023-07-31T21:48:14;9.48;;;2.55;;
37349;SDS011;23231;52.358;4.926;2023-07-31T21:53:14;8.20;;;2.47;;
37349;SDS011;23231;52.358;4.926;2023-07-31T21:58:14;7.32;;;2.65;;
37349;SDS011;23231;52.358;4.926;2023-07-31T22:03:15;8.70;;;2.42;;
37349;SDS011;23231;52.358;4.926;2023-07-31T22:08:15;10.70;;;2.75;;
37349;SDS011;23231;52.358;4.926;2023-07-31T22:13:15;8.63;;;2.42;;
37349;SDS011;23231;52.358;4.926;2023-07-31T22:18:16;7.07;;;2.13;;
37349;SDS011;23231;52.358;4.926;2023-07-31T22:23:17;6.50;;;2.28;;
37349;SDS011;23231;52.358;4.926;2023-07-31T22:28:18;10.88;;;1.88;;
37349;SDS011;23231;52.358;4.926;2023-07-31T22:33:18;8.32;;;2.03;;
37349;SDS011;23231;52.358;4.926;2023-07-31T22:38:19;9.23;;;2.30;;
37349;SDS011;23231;52.358;4.926;2023-07-31T22:43:20;7.13;;;2.00;;
37349;SDS011;23231;52.358;4.926;2023-07-31T22:48:20;12.77;;;2.28;;
37349;SDS011;23231;52.358;4.926;2023-07-31T22:53:20;7.65;;;2.72;;
37349;SDS011;23231;52.358;4.926;2023-07-31T22:58:21;11.25;;;2.25;;
37349;SDS011;23231;52.358;4.926;2023-07-31T23:03:21;8.38;;;2.67;;
37349;SDS011;23231;52.358;4.926;2023-07-31T23:13:24;6.95;;;2.30;;
37349;SDS011;23231;52.358;4.926;2023-07-31T23:18:24;8.35;;;2.63;;
37349;SDS011;23231;52.358;4.926;2023-07-31T23:23:25;10.88;;;2.80;;
37349;SDS011;23231;52.358;4.926;2023-07-31T23:28:25;7.43;;;2.35;;
37349;SDS011;23231;52.358;4.926;2023-07-31T23:33:25;8.57;;;2.55;;
37349;SDS011;23231;52.358;4.926;2023-07-31T23:38:26;8.98;;;2.53;;
37349;SDS011;23231;52.358;4.926;2023-07-31T23:43:26;7.68;;;2.60;;
37349;SDS011;23231;52.358;4.926;2023-07-31T23:48:27;9.88;;;3.03;;
37349;SDS011;23231;52.358;4.926;2023-07-31T23:53:27;11.32;;;2.78;;
37349;SDS011;23231;52.358;4.926;2023-07-31T23:58:27;10.77;;;3.30;;
